Aeroclub de GuadalajaraInformación meteorológica

Información de METAR

 

LEMD - Madrid / Barajas
Distancia desde la estación: SO 49km
Actualización: 24/08/2017 06:30
Despejado
Despejado
 Viento del varies
Viento: varies 2 km/h
Temperatura: 20°C
Rocío: 11°C
Humedad: 56%
Barómetro: 1016 hPa
Resumen: Despejado
Visibilidad: más de 10 km
2017/08/24 04:30 LEMD 240430Z VRB01KT CAVOK 20/11 Q1016 NOSIG
LECV - Madrid / Colmenar Viejo
Distancia desde la estación: OSO 47km
Actualización: 23/08/2017 20:00
NO actualizado
Poco nuboso
Poco nuboso
 Viento del SO
Viento: SO 15 km/h
Temperatura: 31°C
Rocío: 3°C
Humedad: 17%
Barómetro: 1018 hPa
Nubes: Poco nuboso
Visibilidad: 10 km
Detalle de Nubes: Poco nuboso 1524 m
2017/08/23 18:00 LECV 231800Z 22008KT 9999 FEW050TCU 31/03 Q1018
LETO - Madrid / Torrejon
Distancia desde la estación: SSO 45km
Actualización: 24/08/2017 05:00
NO actualizado
Despejado
Despejado
 Viento del NNE
Viento: NNE 4 km/h
Temperatura: 21°C
Rocío: 11°C
Humedad: 53%
Barómetro: 1016 hPa
Resumen: Despejado
Visibilidad: más de 10 km
2017/08/24 03:00 LETO 240300Z 03002KT CAVOK 21/11 Q1016 NOSIG
 
LEVS - Madrid / Cuatro vientos
Distancia desde la estación: SO 70km
Actualización: 23/08/2017 22:00
NO actualizado
Despejado
Despejado
 Viento del OSO
Viento: OSO 13 km/h
Temperatura: 28°C
Rocío: 5°C
Humedad: 23%
Barómetro: 1016 hPa
Resumen: Despejado
Visibilidad: más de 10 km
2017/08/23 20:00 LEVS 232000Z 25007KT CAVOK 28/05 Q1016
LEGT - Madrid / Getafe
Distancia desde la estación: SSO 74km
Actualización: 23/08/2017 22:00
NO actualizado
Despejado
Despejado
 Viento del O
Viento: O 11 km/h
Temperatura: 32°C
Rocío: 7°C
Humedad: 21%
Barómetro: 1015 hPa
Resumen: Despejado
Visibilidad: más de 10 km
2017/08/23 20:00 LEGT 232000Z 26006KT CAVOK 32/07 Q1015
LEBL - Barcelona / Aeropuerto
Distancia desde la estación: E 447km
Actualización: 24/08/2017 06:30
Poco nuboso
Poco nuboso
 Viento del varies
Viento: varies 2 km/h
Temperatura: 25°C
Rocío: 21°C
Humedad: 79%
Barómetro: 1017 hPa
Nubes: Poco nuboso
Visibilidad: 10 km
Detalle de Nubes: Poco nuboso 610 m
2017/08/24 04:30 LEBL 240430Z VRB01KT 9999 FEW020 25/21 Q1017 NOSIG
 
LEVC - Valencia /Aeropuerto
Distancia desde la estación: ESE 280km
Actualización: 24/08/2017 06:30
Parcialmente nuboso
Parcialmente nuboso
 Viento del NNO
Viento: NNO 9 km/h
Temperatura: 22°C
Rocío: 19°C
Humedad: 83%
Barómetro: 1017 hPa
Nubes: Parcialmente nuboso
Visibilidad: 10 km
Detalle de Nubes: Parcialmente nuboso 610 m
2017/08/24 04:30 LEVC 240430Z 33005KT 9999 SCT020 22/19 Q1017 NOSIG
LEZG - Zaragoza / Aeropuerto
Distancia desde la estación: ENE 206km
Actualización: 24/08/2017 06:30
Poco nuboso
Poco nuboso
 Viento del N
Viento: N 6 km/h
Temperatura: 20°C
Rocío: 15°C
Humedad: 73%
Barómetro: 1017 hPa
Nubes: Poco nuboso
Visibilidad: 10 km
Detalle de Nubes: Poco nuboso 1219 m
2017/08/24 04:30 LEZG 240430Z 01003KT 340V040 9999 FEW040 20/15 Q1017
LEGR - Granada / Aeropuerto
Distancia desde la estación: S 411km
Actualización: 24/08/2017 06:30
Despejado
Despejado
 Viento del calm
Viento: Calma
Temperatura: 17°C
Rocío: 6°C
Humedad: 49%
Barómetro: 1019 hPa
Resumen: Despejado
Visibilidad: más de 10 km
2017/08/24 04:30 LEGR 240430Z 00000KT CAVOK 17/06 Q1019